TAF KFNT
KFNT 280540Z 2806/2906 30006KT 6SM BR BKN016 OVC024 FM281300 25008KT 3SM -SHSN BKN012 OVC035 FM281600 29015G25KT P6SM -SHSN BKN030 OVC060 FM290200 31012G20KT P6SM SCT040 BKN060=
METAR KFNT
WC KFNT
WS KFNT
WV KFNT